Time;durP1;ratioP1;P1;durP2;ratioP2;P2;SDS_P1;SDS_P2;PMS_P1;PMS_P2;Temp;Humidity;BMP_temperature;BMP_pressure;BME280_temperature;BME280_humidity;BME280_pressure;Samples;Min_cycle;Max_cycle;Signal;HPM_P1;HPM_P2
2023/08/16 00:01:16;;;;;;;6.88;3.40;;;19.70;69.40;;;;;;9167602;19;20019;-65
2023/08/16 00:04:22;;;;;;;6.60;2.90;;;19.70;69.50;;;;;;9166195;19;20471;-66
2023/08/16 00:07:34;;;;;;;5.80;3.35;;;19.70;69.60;;;;;;9165355;19;20011;-65
2023/08/16 00:10:39;;;;;;;8.60;3.22;;;19.60;69.60;;;;;;9167159;19;20017;-63
2023/08/16 00:13:47;;;;;;;8.25;3.00;;;19.60;69.60;;;;;;9167581;19;20014;-63
2023/08/16 00:16:52;;;;;;;10.43;2.92;;;19.60;69.70;;;;;;9166676;19;20014;-63
2023/08/16 00:19:59;;;;;;;4.43;2.55;;;19.60;69.70;;;;;;9164935;19;20023;-64
2023/08/16 00:23:07;;;;;;;6.20;3.30;;;19.60;69.70;;;;;;9167280;19;20014;-64
2023/08/16 00:26:15;;;;;;;8.77;2.85;;;19.50;69.80;;;;;;9166624;19;20018;-63
2023/08/16 00:29:20;;;;;;;4.78;2.70;;;19.50;69.90;;;;;;9165000;19;20022;-67
2023/08/16 00:32:35;;;;;;;7.25;3.40;;;19.50;69.90;;;;;;9166381;19;20026;-64
2023/08/16 00:35:40;;;;;;;5.07;2.80;;;19.50;70.00;;;;;;9165183;19;20010;-66
2023/08/16 00:38:51;;;;;;;5.80;2.65;;;19.50;69.90;;;;;;9165905;19;20017;-63
2023/08/16 00:41:56;;;;;;;5.28;2.90;;;19.40;70.00;;;;;;9163142;19;20034;-65
2023/08/16 00:45:04;;;;;;;6.50;2.72;;;19.40;70.00;;;;;;9165779;19;20018;-64
2023/08/16 00:48:09;;;;;;;7.03;3.15;;;19.40;70.10;;;;;;9165414;19;20375;-64
2023/08/16 00:51:37;;;;;;;5.65;2.63;;;19.30;70.20;;;;;;9163685;19;20031;-63
2023/08/16 00:54:45;;;;;;;4.60;2.60;;;19.30;70.20;;;;;;9165666;19;20014;-64
2023/08/16 00:57:55;;;;;;;9.75;4.05;;;19.30;70.30;;;;;;9158976;19;20010;-64
2023/08/16 01:01:01;;;;;;;6.00;2.85;;;19.30;70.30;;;;;;9162962;19;20474;-65
2023/08/16 01:04:09;;;;;;;9.65;3.03;;;19.30;70.40;;;;;;9165482;19;20041;-65
2023/08/16 01:07:14;;;;;;;5.75;2.90;;;19.20;70.30;;;;;;9165222;19;20029;-66
2023/08/16 01:10:33;;;;;;;4.78;2.63;;;19.20;70.40;;;;;;9164414;19;20016;-67
2023/08/16 01:13:46;;;;;;;4.18;2.50;;;19.20;71.10;;;;;;9163506;19;20015;-64
2023/08/16 01:16:55;;;;;;;10.65;2.92;;;19.20;70.50;;;;;;9164463;19;20014;-67
2023/08/16 01:20:03;;;;;;;9.95;3.17;;;19.20;70.50;;;;;;9163173;19;20455;-66
2023/08/16 01:23:17;;;;;;;12.00;2.80;;;19.10;70.50;;;;;;9164993;19;20078;-67
2023/08/16 01:26:31;;;;;;;9.02;2.80;;;19.10;70.60;;;;;;9164122;19;20468;-65
2023/08/16 01:29:40;;;;;;;8.52;2.92;;;19.10;70.60;;;;;;9162995;19;20356;-67
2023/08/16 01:32:45;;;;;;;6.47;2.60;;;19.10;70.60;;;;;;9164425;19;20018;-67
2023/08/16 01:35:53;;;;;;;4.75;3.00;;;19.10;70.60;;;;;;9164583;19;20455;-65
2023/08/16 01:38:59;;;;;;;7.10;2.75;;;19.00;70.60;;;;;;9164012;19;20410;-67
2023/08/16 01:42:13;;;;;;;6.50;2.95;;;19.00;70.70;;;;;;9164631;19;20029;-63
2023/08/16 01:45:20;;;;;;;7.50;2.75;;;19.00;70.80;;;;;;9163941;19;20082;-66
2023/08/16 01:48:31;;;;;;;6.82;2.85;;;19.00;70.80;;;;;;9162311;19;20056;-65
2023/08/16 01:51:37;;;;;;;5.70;2.60;;;18.90;70.80;;;;;;9164182;19;20010;-63
2023/08/16 01:54:45;;;;;;;10.70;3.05;;;19.00;70.90;;;;;;9163896;19;20034;-64
2023/08/16 01:57:52;;;;;;;10.32;2.72;;;19.00;70.90;;;;;;9157444;19;20010;-63
2023/08/16 02:01:00;;;;;;;8.98;3.10;;;18.90;71.00;;;;;;9160025;19;20015;-63
2023/08/16 02:04:06;;;;;;;7.43;3.03;;;18.90;71.00;;;;;;9162177;19;20063;-67
2023/08/16 02:07:13;;;;;;;11.40;2.63;;;18.90;71.00;;;;;;9163743;19;20488;-64
2023/08/16 02:10:19;;;;;;;4.72;2.60;;;18.90;71.10;;;;;;9162592;19;20006;-63
2023/08/16 02:13:29;;;;;;;7.80;3.00;;;18.90;71.20;;;;;;9162477;19;20015;-65
2023/08/16 02:16:35;;;;;;;7.25;2.85;;;18.90;71.30;;;;;;9160873;19;20018;-66
2023/08/16 02:19:42;;;;;;;6.45;3.00;;;18.90;71.20;;;;;;9159982;19;20025;-64
2023/08/16 02:22:47;;;;;;;9.38;2.67;;;18.90;71.40;;;;;;9162516;19;20034;-67
2023/08/16 02:25:55;;;;;;;7.45;2.92;;;18.80;71.30;;;;;;9163004;19;20014;-64
2023/08/16 02:29:04;;;;;;;6.78;2.70;;;18.80;71.30;;;;;;9166168;19;20014;-64
2023/08/16 02:32:12;;;;;;;7.38;3.03;;;18.80;71.30;;;;;;9169256;19;20384;-63
2023/08/16 02:35:17;;;;;;;5.93;2.92;;;18.80;71.30;;;;;;9171512;19;20368;-66
2023/08/16 02:38:25;;;;;;;5.63;2.83;;;18.80;71.40;;;;;;9169496;19;20018;-65
2023/08/16 02:41:32;;;;;;;5.85;2.90;;;18.80;71.40;;;;;;9166603;19;20476;-65
2023/08/16 02:44:42;;;;;;;8.80;3.15;;;18.70;71.40;;;;;;9168441;19;20013;-64
2023/08/16 02:47:48;;;;;;;7.22;2.95;;;18.70;71.60;;;;;;9169259;19;20337;-65
2023/08/16 02:50:55;;;;;;;6.10;2.53;;;18.70;71.60;;;;;;9170978;19;20022;-64
2023/08/16 02:54:01;;;;;;;7.90;3.10;;;18.70;71.60;;;;;;9171356;19;20364;-63
2023/08/16 02:57:08;;;;;;;8.38;3.03;;;18.70;71.60;;;;;;9164222;19;20464;-65
2023/08/16 03:00:18;;;;;;;5.32;2.88;;;18.60;71.60;;;;;;9169513;19;20030;-66
2023/08/16 03:03:26;;;;;;;9.45;3.25;;;18.60;71.80;;;;;;9170075;19;20673;-64
2023/08/16 03:06:31;;;;;;;5.85;2.95;;;18.60;71.80;;;;;;9170162;19;20011;-64
2023/08/16 03:09:39;;;;;;;13.40;3.05;;;18.60;71.80;;;;;;9169775;19;20014;-64
2023/08/16 03:12:44;;;;;;;8.95;3.90;;;18.60;71.80;;;;;;9169805;19;20482;-64
2023/08/16 03:15:54;;;;;;;9.82;3.47;;;18.50;71.80;;;;;;9168871;19;20018;-67
2023/08/16 03:19:00;;;;;;;7.43;3.13;;;18.50;71.90;;;;;;9168876;19;20017;-65
2023/08/16 03:22:09;;;;;;;7.28;2.70;;;18.50;71.90;;;;;;9164676;19;20606;-65
2023/08/16 03:25:14;;;;;;;6.68;2.88;;;18.40;71.80;;;;;;9169348;19;20121;-66
2023/08/16 03:28:21;;;;;;;5.97;3.10;;;18.40;71.90;;;;;;9167451;19;20022;-65
2023/08/16 03:31:29;;;;;;;6.45;3.03;;;18.40;71.90;;;;;;9168927;19;20048;-64
2023/08/16 03:34:37;;;;;;;5.18;2.63;;;18.40;72.00;;;;;;9168837;19;20479;-64
2023/08/16 03:37:43;;;;;;;6.72;2.85;;;18.40;72.00;;;;;;9167359;19;20740;-63
2023/08/16 03:40:50;;;;;;;8.38;3.03;;;18.40;72.10;;;;;;9161949;19;20010;-65
2023/08/16 03:43:56;;;;;;;5.75;3.42;;;18.30;72.10;;;;;;9166300;19;20043;-64
2023/08/16 03:47:06;;;;;;;7.35;3.10;;;18.30;72.10;;;;;;9168259;19;20107;-64
2023/08/16 03:50:12;;;;;;;9.82;3.42;;;18.30;72.20;;;;;;9168425;19;20010;-66
2023/08/16 03:53:19;;;;;;;11.80;3.75;;;18.30;72.20;;;;;;9166517;19;20018;-63
2023/08/16 03:56:24;;;;;;;9.75;3.40;;;18.20;72.30;;;;;;9163892;19;20345;-64
2023/08/16 03:59:34;;;;;;;8.13;3.22;;;18.20;72.40;;;;;;9168130;19;20018;-67
2023/08/16 04:02:42;;;;;;;12.30;4.40;;;18.20;72.40;;;;;;9165207;19;20048;-63
2023/08/16 04:05:52;;;;;;;10.18;3.25;;;18.10;72.50;;;;;;9165894;19;20022;-64
2023/08/16 04:08:58;;;;;;;11.02;3.25;;;18.10;72.60;;;;;;9166155;19;20018;-65
2023/08/16 04:12:06;;;;;;;6.15;3.47;;;18.10;72.60;;;;;;9167542;19;20026;-64
2023/08/16 04:15:12;;;;;;;8.90;3.60;;;18.10;72.60;;;;;;9167588;19;20825;-63
2023/08/16 04:18:22;;;;;;;7.57;3.83;;;18.10;72.70;;;;;;9164975;19;20022;-64
2023/08/16 04:21:27;;;;;;;12.63;3.70;;;18.10;72.70;;;;;;9165769;19;20464;-65
2023/08/16 04:24:35;;;;;;;14.43;3.50;;;18.00;72.60;;;;;;9166434;19;20026;-65
2023/08/16 04:27:40;;;;;;;6.50;3.17;;;18.00;72.70;;;;;;9165278;19;20044;-67
2023/08/16 04:30:47;;;;;;;7.70;3.08;;;18.00;72.80;;;;;;9165399;19;20050;-63
2023/08/16 04:33:55;;;;;;;7.18;3.42;;;18.00;72.80;;;;;;9164453;19;20016;-68
2023/08/16 04:37:03;;;;;;;6.53;3.60;;;17.90;72.90;;;;;;9162336;19;20017;-67
2023/08/16 04:40:10;;;;;;;6.43;2.88;;;17.90;72.90;;;;;;9164121;19;20014;-66
2023/08/16 04:43:18;;;;;;;9.00;3.53;;;17.90;73.00;;;;;;9162049;19;20014;-65
2023/08/16 04:46:24;;;;;;;8.80;3.70;;;17.90;73.00;;;;;;9166168;19;20028;-63
2023/08/16 04:49:34;;;;;;;6.43;3.83;;;17.90;73.10;;;;;;9163986;19;20048;-65
2023/08/16 04:52:40;;;;;;;11.15;4.10;;;17.90;73.20;;;;;;9163495;19;20018;-65
2023/08/16 04:55:48;;;;;;;11.05;4.55;;;17.90;73.20;;;;;;9165895;19;20025;-64
2023/08/16 04:58:54;;;;;;;10.45;4.05;;;17.90;73.30;;;;;;9159442;19;20021;-64
2023/08/16 05:02:02;;;;;;;11.10;4.75;;;17.90;73.40;;;;;;9162443;19;20017;-67
2023/08/16 05:05:11;;;;;;;8.23;3.45;;;17.90;73.50;;;;;;9165055;19;20010;-65
2023/08/16 05:08:18;;;;;;;6.35;3.97;;;17.90;73.60;;;;;;9163774;19;20480;-65
2023/08/16 05:11:23;;;;;;;9.60;4.32;;;17.90;73.60;;;;;;9163512;19;20014;-66
2023/08/16 05:14:31;;;;;;;9.20;4.35;;;17.90;74.20;;;;;;9163427;19;20014;-64
2023/08/16 05:17:36;;;;;;;12.18;4.18;;;17.90;73.70;;;;;;9165342;19;20529;-66
2023/08/16 05:20:48;;;;;;;8.60;4.20;;;17.90;73.70;;;;;;9163217;19;20022;-65
2023/08/16 05:23:53;;;;;;;7.75;4.20;;;17.90;73.80;;;;;;9164666;19;20018;-64
2023/08/16 05:27:01;;;;;;;9.73;4.10;;;17.90;73.80;;;;;;9165540;19;20022;-63
2023/08/16 05:30:08;;;;;;;5.55;4.05;;;18.00;73.80;;;;;;9165268;19;20010;-66
2023/08/16 05:33:15;;;;;;;16.13;4.53;;;18.00;73.90;;;;;;9162326;19;20714;-64
2023/08/16 05:36:23;;;;;;;8.55;4.10;;;18.00;73.90;;;;;;9164966;19;20032;-65
2023/08/16 05:39:31;;;;;;;9.75;4.60;;;18.00;74.00;;;;;;9164627;19;20022;-65
2023/08/16 05:42:36;;;;;;;11.00;4.68;;;18.00;74.00;;;;;;9162896;19;20011;-65
2023/08/16 05:45:44;;;;;;;8.18;4.30;;;18.00;74.10;;;;;;9163636;19;20018;-68
2023/08/16 05:48:49;;;;;;;10.77;4.47;;;18.00;74.10;;;;;;9161522;19;20085;-64
2023/08/16 05:51:59;;;;;;;13.20;4.32;;;18.00;74.10;;;;;;9163704;19;20487;-65
2023/08/16 05:55:04;;;;;;;9.38;4.60;;;18.10;74.30;;;;;;9163694;19;20078;-66
2023/08/16 05:58:12;;;;;;;14.05;5.05;;;18.10;74.20;;;;;;9158469;19;20817;-66
2023/08/16 06:01:17;;;;;;;7.75;4.55;;;18.10;74.30;;;;;;9163494;19;20046;-63
2023/08/16 06:04:25;;;;;;;8.65;4.00;;;18.10;74.30;;;;;;9161653;19;20365;-65
2023/08/16 06:07:33;;;;;;;10.27;4.40;;;18.10;74.30;;;;;;9162995;19;20039;-67
2023/08/16 06:10:40;;;;;;;7.10;4.10;;;18.10;74.50;;;;;;9162755;19;20598;-66
2023/08/16 06:13:46;;;;;;;8.90;4.43;;;18.20;74.50;;;;;;9160698;19;20006;-69
2023/08/16 06:16:53;;;;;;;10.02;5.07;;;18.20;74.50;;;;;;9163075;19;20259;-65
2023/08/16 06:19:59;;;;;;;17.45;4.53;;;18.20;74.60;;;;;;9162262;19;20821;-69
2023/08/16 06:23:09;;;;;;;12.85;4.78;;;18.20;74.60;;;;;;9160855;19;20947;-67
2023/08/16 06:26:14;;;;;;;12.52;4.60;;;18.20;74.80;;;;;;9162605;19;20563;-64
2023/08/16 06:29:21;;;;;;;9.23;4.78;;;18.30;74.80;;;;;;9160246;19;20030;-66
2023/08/16 06:32:27;;;;;;;13.38;4.55;;;18.30;74.80;;;;;;9162161;19;20022;-64
2023/08/16 06:35:34;;;;;;;9.68;4.20;;;18.30;74.80;;;;;;9162115;19;20590;-65
2023/08/16 06:38:43;;;;;;;10.25;4.95;;;18.40;74.80;;;;;;9161808;19;20048;-66
2023/08/16 06:41:51;;;;;;;10.57;5.00;;;18.40;75.00;;;;;;9161442;19;20018;-65
2023/08/16 06:44:58;;;;;;;11.25;5.05;;;18.40;74.90;;;;;;9158352;19;20022;-65
2023/08/16 06:48:06;;;;;;;16.67;4.45;;;18.40;74.90;;;;;;9159002;19;20014;-68
2023/08/16 06:51:11;;;;;;;11.27;4.75;;;18.50;75.00;;;;;;9161383;19;20022;-66
2023/08/16 06:54:21;;;;;;;9.55;5.07;;;18.50;75.10;;;;;;9161158;19;20622;-66
2023/08/16 06:57:27;;;;;;;7.22;3.90;;;18.60;75.20;;;;;;9156482;19;20055;-65
2023/08/16 07:00:34;;;;;;;7.10;4.28;;;18.60;75.20;;;;;;9160965;19;20503;-67
2023/08/16 07:03:40;;;;;;;11.10;4.15;;;18.70;75.20;;;;;;9157987;19;20022;-64
2023/08/16 07:06:48;;;;;;;13.38;4.03;;;18.70;75.20;;;;;;9161038;19;20019;-67
2023/08/16 07:09:56;;;;;;;5.90;3.90;;;18.70;75.20;;;;;;9160012;19;20015;-65
2023/08/16 07:13:04;;;;;;;12.35;3.58;;;18.80;75.30;;;;;;9157130;19;20010;-74
2023/08/16 07:16:09;;;;;;;8.82;3.50;;;18.80;75.20;;;;;;9166707;19;20380;-77
2023/08/16 07:19:17;;;;;;;6.38;2.92;;;18.90;75.20;;;;;;9167849;19;20388;-71
2023/08/16 07:22:24;;;;;;;11.20;3.33;;;18.90;75.20;;;;;;9168485;19;20023;-73
2023/08/16 07:25:35;;;;;;;4.90;3.10;;;18.90;75.70;;;;;;9165108;19;20010;-74
2023/08/16 07:28:40;;;;;;;12.65;3.67;;;19.00;75.20;;;;;;9169438;19;20373;-71
2023/08/16 07:31:48;;;;;;;8.52;3.63;;;18.90;75.00;;;;;;9168422;19;20015;-72
2023/08/16 07:34:54;;;;;;;8.63;4.22;;;19.00;75.10;;;;;;9166334;19;20019;-71
2023/08/16 07:38:02;;;;;;;11.20;3.72;;;19.00;75.10;;;;;;9165415;19;21005;-71
2023/08/16 07:41:10;;;;;;;10.50;3.67;;;19.10;75.20;;;;;;9167868;19;20022;-71
2023/08/16 07:44:17;;;;;;;8.70;3.60;;;19.10;75.10;;;;;;9159884;19;20014;-72
2023/08/16 07:47:23;;;;;;;9.20;3.78;;;19.10;75.00;;;;;;9163604;19;20489;-73
2023/08/16 07:50:31;;;;;;;10.00;4.00;;;19.10;75.00;;;;;;9163647;19;20014;-71
2023/08/16 07:53:36;;;;;;;9.40;4.00;;;19.20;75.10;;;;;;9164636;19;20010;-72
2023/08/16 07:56:46;;;;;;;10.02;3.92;;;19.20;75.00;;;;;;9158642;19;20020;-74
2023/08/16 07:59:51;;;;;;;7.97;3.72;;;19.20;75.10;;;;;;9164571;19;20022;-70
2023/08/16 08:02:59;;;;;;;14.00;4.20;;;19.20;75.00;;;;;;9164616;19;20682;-71
2023/08/16 08:06:09;;;;;;;11.80;4.50;;;19.30;75.10;;;;;;9163448;19;20049;-70
2023/08/16 08:09:16;;;;;;;13.07;3.90;;;19.30;75.10;;;;;;9166829;19;20025;-73
2023/08/16 08:12:24;;;;;;;12.07;4.20;;;19.40;75.10;;;;;;9165765;19;20022;-70
2023/08/16 08:15:32;;;;;;;7.78;4.78;;;19.40;75.20;;;;;;9163783;19;20015;-70
2023/08/16 08:18:38;;;;;;;12.15;5.30;;;19.50;75.80;;;;;;9168192;19;20368;-73
2023/08/16 08:21:45;;;;;;;11.23;5.10;;;19.50;75.10;;;;;;9161480;19;20033;-72
2023/08/16 08:24:51;;;;;;;9.80;4.40;;;19.60;75.10;;;;;;9161376;19;20018;-74
2023/08/16 08:28:01;;;;;;;8.25;4.55;;;19.70;75.00;;;;;;9163818;19;20024;-72
2023/08/16 08:31:06;;;;;;;17.23;5.22;;;19.90;75.10;;;;;;9164041;19;20015;-73
2023/08/16 08:34:16;;;;;;;9.13;4.20;;;20.00;75.00;;;;;;9163163;19;20007;-75
2023/08/16 08:37:21;;;;;;;8.50;4.95;;;20.20;75.10;;;;;;9163945;19;20015;-75
2023/08/16 08:40:32;;;;;;;10.15;4.03;;;20.40;75.10;;;;;;9161878;19;20017;-71
2023/08/16 08:43:43;;;;;;;12.25;3.97;;;20.60;74.90;;;;;;9161043;19;20387;-72
2023/08/16 08:47:08;;;;;;;13.38;3.90;;;20.90;74.70;;;;;;9164737;19;19995;-71
2023/08/16 08:50:37;;;;;;;8.80;3.85;;;21.20;74.40;;;;;;9162286;19;20134;-71
2023/08/16 08:53:46;;;;;;;6.57;2.97;;;21.50;74.00;;;;;;9158991;19;20025;-70
2023/08/16 08:56:54;;;;;;;8.52;3.25;;;21.70;73.60;;;;;;9157292;19;20094;-70
2023/08/16 09:00:08;;;;;;;8.77;2.95;;;21.90;73.20;;;;;;9163266;19;20037;-70
2023/08/16 09:03:15;;;;;;;7.43;3.05;;;22.20;73.00;;;;;;9164577;19;20048;-70
2023/08/16 09:06:23;;;;;;;8.40;3.33;;;22.40;72.70;;;;;;9165728;19;20033;-68
2023/08/16 09:09:29;;;;;;;13.52;2.83;;;22.60;72.40;;;;;;9164974;19;20029;-71
2023/08/16 09:12:37;;;;;;;5.63;2.30;;;22.70;72.00;;;;;;9162813;19;20021;-71
2023/08/16 09:15:45;;;;;;;5.22;2.30;;;22.80;71.60;;;;;;9161412;19;20014;-70
2023/08/16 09:18:54;;;;;;;4.07;1.92;;;22.90;71.40;;;;;;9162299;19;20021;-71
2023/08/16 09:21:59;;;;;;;6.90;2.30;;;22.90;71.20;;;;;;9165190;19;20873;-70
2023/08/16 09:25:11;;;;;;;4.47;2.03;;;23.00;71.00;;;;;;9163347;19;20041;-69
2023/08/16 09:28:17;;;;;;;3.85;2.10;;;23.10;70.80;;;;;;9166009;19;20566;-72
2023/08/16 09:31:29;;;;;;;9.43;2.10;;;23.20;70.50;;;;;;9162911;19;20014;-72
2023/08/16 09:34:35;;;;;;;2.45;1.60;;;23.20;70.10;;;;;;9162031;19;20386;-73
2023/08/16 09:37:58;;;;;;;5.50;2.15;;;23.30;70.00;;;;;;9158948;19;20006;-71
2023/08/16 09:41:03;;;;;;;2.97;1.67;;;23.40;69.80;;;;;;9161293;19;20057;-74
2023/08/16 09:44:11;;;;;;;4.60;1.77;;;23.40;69.60;;;;;;9159531;19;20011;-68
2023/08/16 09:47:20;;;;;;;4.15;1.65;;;23.50;69.40;;;;;;9162890;19;20014;-69
2023/08/16 09:50:29;;;;;;;3.88;1.80;;;23.60;69.20;;;;;;9158518;19;20056;-74
2023/08/16 09:53:35;;;;;;;6.85;2.03;;;23.70;69.10;;;;;;9159683;19;20040;-69
2023/08/16 09:56:47;;;;;;;7.05;1.90;;;23.80;68.90;;;;;;9154959;19;20015;-70
2023/08/16 09:59:57;;;;;;;5.88;1.60;;;23.80;68.60;;;;;;9160590;19;20081;-69
2023/08/16 10:03:08;;;;;;;4.50;1.38;;;23.90;68.40;;;;;;9160096;19;20405;-70
2023/08/16 10:06:14;;;;;;;3.40;1.45;;;23.90;68.00;;;;;;9157087;19;20494;-71
2023/08/16 10:09:28;;;;;;;3.75;1.73;;;23.90;68.00;;;;;;9157398;19;20010;-70
2023/08/16 10:12:35;;;;;;;3.60;1.80;;;24.00;67.80;;;;;;9158201;19;20026;-72
2023/08/16 10:15:46;;;;;;;2.58;1.70;;;24.00;67.60;;;;;;9159811;19;20011;-71
2023/08/16 10:18:57;;;;;;;4.85;1.88;;;24.00;67.40;;;;;;9158574;19;20052;-71
2023/08/16 10:22:06;;;;;;;11.32;1.50;;;24.00;67.40;;;;;;9161432;19;20014;-70
2023/08/16 10:25:46;;;;;;;4.78;1.38;;;24.00;67.40;;;;;;9159995;19;20066;-74
2023/08/16 10:28:59;;;;;;;2.90;1.38;;;24.00;67.20;;;;;;9162311;19;20018;-73
2023/08/16 10:32:07;;;;;;;4.60;1.42;;;24.10;67.20;;;;;;9160745;19;20018;-70
2023/08/16 10:35:18;;;;;;;2.92;1.58;;;24.10;67.10;;;;;;9156717;19;20030;-70
2023/08/16 10:38:23;;;;;;;5.55;2.13;;;24.20;66.90;;;;;;9157367;19;20102;-72
2023/08/16 10:41:42;;;;;;;5.28;1.48;;;24.20;66.70;;;;;;9158850;19;20807;-69
2023/08/16 10:44:52;;;;;;;5.15;1.60;;;24.30;66.30;;;;;;9159394;19;20025;-71
2023/08/16 10:48:09;;;;;;;6.00;1.65;;;24.30;66.20;;;;;;9156483;19;20022;-69
2023/08/16 10:51:18;;;;;;;2.17;1.60;;;24.30;66.30;;;;;;9164927;19;20526;-71
2023/08/16 10:54:34;;;;;;;8.85;1.80;;;24.30;66.10;;;;;;9168804;19;20033;-73
2023/08/16 10:57:40;;;;;;;3.45;1.30;;;24.30;66.60;;;;;;9161508;19;20014;-72
2023/08/16 11:00:55;;;;;;;5.90;1.67;;;24.40;66.00;;;;;;9166550;19;20014;-71
2023/08/16 11:04:02;;;;;;;3.83;1.60;;;24.40;65.80;;;;;;9167103;19;20357;-72
2023/08/16 11:07:14;;;;;;;9.48;2.28;;;24.40;65.70;;;;;;9168350;19;20018;-69
2023/08/16 11:10:20;;;;;;;5.15;1.77;;;24.40;65.50;;;;;;9164227;19;20394;-71
2023/08/16 11:13:30;;;;;;;4.75;1.83;;;24.40;65.70;;;;;;9168153;19;20349;-70
2023/08/16 11:16:36;;;;;;;5.40;1.77;;;24.50;65.60;;;;;;9167659;19;20022;-70
2023/08/16 11:19:46;;;;;;;3.90;1.50;;;24.50;65.50;;;;;;9164204;19;20023;-71
2023/08/16 11:22:55;;;;;;;7.45;1.58;;;24.60;65.40;;;;;;9166481;19;20021;-73
2023/08/16 11:26:04;;;;;;;4.40;1.40;;;24.80;65.20;;;;;;9165282;19;20015;-71
2023/08/16 11:29:09;;;;;;;2.63;1.00;;;25.00;65.00;;;;;;9166530;19;20071;-71
2023/08/16 11:32:16;;;;;;;6.22;1.42;;;25.10;64.80;;;;;;9167318;19;20011;-71
2023/08/16 11:35:23;;;;;;;5.28;1.30;;;25.30;64.80;;;;;;9164916;19;20029;-73
2023/08/16 11:38:34;;;;;;;4.40;1.23;;;25.50;64.30;;;;;;9166032;19;20467;-71
2023/08/16 11:41:40;;;;;;;5.97;1.30;;;25.60;63.90;;;;;;9166785;19;20015;-74
2023/08/16 11:44:47;;;;;;;6.05;1.60;;;25.70;63.90;;;;;;9164807;19;20581;-73
2023/08/16 11:47:53;;;;;;;5.45;1.15;;;25.90;63.80;;;;;;9163988;19;20010;-70
2023/08/16 11:51:01;;;;;;;3.33;1.45;;;26.00;63.60;;;;;;9166721;19;20015;-69
2023/08/16 11:54:09;;;;;;;4.47;1.33;;;26.20;63.40;;;;;;9165172;19;20274;-71
2023/08/16 11:57:20;;;;;;;3.38;1.50;;;26.30;62.90;;;;;;9160680;19;20266;-72
2023/08/16 12:00:30;;;;;;;4.40;1.20;;;26.50;62.60;;;;;;9164088;19;20025;-72
2023/08/16 12:03:38;;;;;;;6.32;1.60;;;26.50;62.30;;;;;;9166190;19;20022;-69
2023/08/16 12:06:49;;;;;;;1.88;0.98;;;26.60;62.30;;;;;;9158704;19;20444;-73
2023/08/16 12:10:02;;;;;;;7.95;1.15;;;26.80;61.90;;;;;;9162598;19;20527;-73
2023/08/16 12:13:14;;;;;;;5.15;1.25;;;26.90;61.90;;;;;;9163924;19;20048;-75
2023/08/16 12:16:22;;;;;;;3.70;1.38;;;27.00;61.50;;;;;;9161233;19;20021;-74
2023/08/16 12:19:28;;;;;;;1.48;0.90;;;;;;;;;;9159454;19;20018;-71
2023/08/16 12:22:35;;;;;;;3.75;0.93;;;27.10;60.80;;;;;;9158584;19;20019;-72
2023/08/16 12:25:43;;;;;;;5.28;0.85;;;27.20;60.90;;;;;;9163528;19;20018;-73
2023/08/16 12:28:51;;;;;;;4.00;0.85;;;27.20;60.50;;;;;;9163839;19;20105;-70
2023/08/16 12:31:56;;;;;;;3.10;0.98;;;27.30;60.40;;;;;;9163495;19;20026;-72
2023/08/16 12:35:04;;;;;;;1.70;0.80;;;27.30;60.20;;;;;;9162304;19;20025;-70
2023/08/16 12:38:09;;;;;;;3.10;1.00;;;27.30;60.00;;;;;;9157616;19;20026;-73
2023/08/16 12:41:23;;;;;;;1.35;0.68;;;27.30;59.80;;;;;;9160022;19;20029;-71
2023/08/16 12:44:28;;;;;;;2.30;0.73;;;27.30;59.00;;;;;;9165236;19;20724;-73
2023/08/16 12:47:35;;;;;;;3.25;0.95;;;27.20;59.10;;;;;;9162748;19;20034;-72
2023/08/16 12:50:41;;;;;;;1.05;0.60;;;27.20;59.00;;;;;;9164484;19;20361;-71
2023/08/16 12:53:48;;;;;;;3.00;1.00;;;27.20;58.80;;;;;;9165775;19;20369;-71
2023/08/16 12:56:56;;;;;;;2.47;0.82;;;27.20;58.70;;;;;;9152714;19;20033;-71
2023/08/16 13:00:14;;;;;;;4.18;0.90;;;27.20;58.40;;;;;;9159667;19;20360;-74
2023/08/16 13:03:29;;;;;;;9.77;1.50;;;27.20;59.10;;;;;;9157696;19;20010;-72
2023/08/16 13:06:40;;;;;;;3.95;1.10;;;27.30;58.50;;;;;;9156721;19;20361;-72
2023/08/16 13:09:56;;;;;;;2.63;1.00;;;27.30;58.40;;;;;;9163848;19;20011;-73
2023/08/16 13:13:11;;;;;;;3.55;0.68;;;27.30;58.20;;;;;;9157688;19;20018;-73
2023/08/16 13:16:17;;;;;;;3.20;1.17;;;27.40;58.00;;;;;;9161427;19;20493;-72
2023/08/16 13:19:32;;;;;;;3.45;1.38;;;27.40;57.80;;;;;;9162822;19;20366;-71
2023/08/16 13:22:41;;;;;;;2.22;0.90;;;27.40;57.60;;;;;;9160908;19;20074;-73
2023/08/16 13:26:02;;;;;;;1.95;0.75;;;27.40;57.50;;;;;;9158326;19;20014;-72
2023/08/16 13:29:21;;;;;;;4.85;0.88;;;27.30;57.40;;;;;;9156240;19;20028;-73
2023/08/16 13:32:36;;;;;;;2.38;0.85;;;27.30;57.20;;;;;;9156684;19;20071;-71
2023/08/16 13:35:48;;;;;;;2.80;0.90;;;27.30;57.30;;;;;;9161756;19;20018;-71
2023/08/16 13:39:10;;;;;;;2.88;0.90;;;27.30;57.20;;;;;;9158007;19;20015;-70
2023/08/16 13:42:32;;;;;;;1.95;0.80;;;27.30;57.10;;;;;;9160390;19;20015;-72
2023/08/16 13:45:47;;;;;;;1.65;0.63;;;27.30;57.20;;;;;;9160015;19;20022;-73
2023/08/16 13:48:56;;;;;;;2.33;1.10;;;27.30;56.90;;;;;;9158137;19;20051;-73
2023/08/16 13:52:04;;;;;;;5.68;1.10;;;27.30;57.00;;;;;;9142885;19;20630;-73
2023/08/16 13:55:11;;;;;;;4.03;1.15;;;27.30;56.80;;;;;;9154977;19;20055;-76
2023/08/16 13:58:19;;;;;;;3.63;1.05;;;27.30;56.70;;;;;;9149234;19;20543;-74
2023/08/16 14:01:27;;;;;;;3.55;0.90;;;27.30;56.60;;;;;;9155700;19;20018;-71
2023/08/16 14:04:34;;;;;;;2.80;0.82;;;27.20;56.40;;;;;;9153459;19;20021;-68
2023/08/16 14:07:42;;;;;;;1.45;0.70;;;27.10;56.40;;;;;;9157038;19;20333;-69
2023/08/16 14:10:53;;;;;;;4.15;1.20;;;26.90;56.30;;;;;;9160540;19;20015;-72
2023/08/16 14:13:58;;;;;;;2.53;0.80;;;26.90;56.30;;;;;;9162090;19;20891;-71
2023/08/16 14:17:08;;;;;;;2.10;0.65;;;26.70;56.30;;;;;;9158851;19;20038;-71
2023/08/16 14:20:14;;;;;;;1.08;0.80;;;26.70;56.30;;;;;;9157096;19;20099;-72
2023/08/16 14:23:21;;;;;;;3.10;0.90;;;26.60;56.40;;;;;;9157078;19;20360;-75
2023/08/16 14:26:27;;;;;;;4.03;0.88;;;26.60;56.50;;;;;;9159236;19;20109;-72
2023/08/16 14:29:36;;;;;;;1.65;0.77;;;26.50;56.30;;;;;;9166363;19;20033;-73
2023/08/16 14:32:44;;;;;;;5.28;1.65;;;26.50;56.30;;;;;;9166750;19;20022;-73
2023/08/16 14:35:52;;;;;;;3.22;0.90;;;26.50;56.30;;;;;;9167195;19;20018;-72
2023/08/16 14:38:57;;;;;;;4.20;0.90;;;26.40;56.40;;;;;;9160068;19;20039;-71
2023/08/16 14:42:07;;;;;;;3.78;1.00;;;26.50;56.60;;;;;;9166935;19;20022;-72
2023/08/16 14:45:13;;;;;;;2.25;1.25;;;26.40;56.50;;;;;;9167777;19;20058;-72
2023/08/16 14:48:23;;;;;;;2.03;1.20;;;26.40;56.50;;;;;;9166056;19;20029;-75
2023/08/16 14:51:28;;;;;;;2.83;0.95;;;26.30;56.30;;;;;;9165654;19;20019;-72
2023/08/16 14:54:35;;;;;;;2.63;0.85;;;26.30;56.30;;;;;;9166729;19;20067;-73
2023/08/16 14:57:46;;;;;;;3.63;0.93;;;26.20;56.30;;;;;;9160585;19;20094;-71
2023/08/16 15:00:54;;;;;;;2.70;0.90;;;26.20;56.30;;;;;;9163972;19;20098;-72
2023/08/16 15:04:02;;;;;;;2.72;0.98;;;26.10;56.40;;;;;;9162315;19;20022;-70
2023/08/16 15:07:09;;;;;;;3.22;0.90;;;26.10;56.50;;;;;;9158952;19;20034;-69
2023/08/16 15:10:15;;;;;;;5.10;1.63;;;26.10;57.10;;;;;;9164912;19;20025;-69
2023/08/16 15:13:24;;;;;;;6.43;1.33;;;26.10;56.60;;;;;;9158753;19;20011;-71
2023/08/16 15:16:30;;;;;;;4.07;1.40;;;26.10;56.70;;;;;;9163782;19;20549;-70
2023/08/16 15:19:41;;;;;;;3.78;1.02;;;26.00;56.60;;;;;;9162295;19;20018;-69
2023/08/16 15:22:46;;;;;;;2.70;0.90;;;26.00;56.50;;;;;;9168113;19;20019;-71
2023/08/16 15:25:56;;;;;;;1.83;0.82;;;26.00;56.50;;;;;;9168704;19;20033;-72
2023/08/16 15:29:02;;;;;;;2.50;0.80;;;26.00;56.50;;;;;;9162269;19;20015;-76
2023/08/16 15:32:09;;;;;;;3.90;0.80;;;26.00;56.60;;;;;;9168164;19;20014;-73
2023/08/16 15:35:17;;;;;;;1.85;0.77;;;26.00;56.70;;;;;;9164685;19;20014;-71
2023/08/16 15:38:44;;;;;;;2.53;1.30;;;26.00;56.60;;;;;;9168267;19;20023;-70
2023/08/16 15:41:50;;;;;;;5.20;1.20;;;26.00;56.50;;;;;;9165944;19;20033;-69
2023/08/16 15:45:00;;;;;;;3.65;0.90;;;26.00;56.70;;;;;;9166672;19;20007;-69
2023/08/16 15:48:09;;;;;;;1.40;0.88;;;25.90;56.60;;;;;;9163063;19;20018;-69
2023/08/16 15:51:19;;;;;;;7.63;1.45;;;25.90;56.60;;;;;;9163775;19;20025;-73
2023/08/16 15:54:24;;;;;;;1.15;0.88;;;25.90;56.40;;;;;;9163664;19;20024;-72
2023/08/16 15:57:32;;;;;;;1.35;0.63;;;25.80;56.40;;;;;;9158980;19;20354;-69
2023/08/16 16:00:39;;;;;;;2.25;0.68;;;25.80;56.40;;;;;;9159827;19;20051;-70
2023/08/16 16:03:46;;;;;;;4.97;1.13;;;25.80;56.50;;;;;;9155981;19;20030;-71
2023/08/16 16:06:54;;;;;;;1.50;0.80;;;25.70;56.50;;;;;;9160279;19;20023;-66
2023/08/16 16:10:03;;;;;;;1.73;0.73;;;25.70;56.50;;;;;;9158439;19;20475;-66
2023/08/16 16:13:09;;;;;;;1.83;0.63;;;25.70;56.60;;;;;;9162987;19;20541;-67
2023/08/16 16:16:16;;;;;;;6.38;1.42;;;25.70;56.60;;;;;;9162861;19;20282;-65
2023/08/16 16:19:24;;;;;;;5.25;1.20;;;25.70;56.60;;;;;;9162414;19;20015;-67